Terminal Aerodrome Forecast
Issued by NWS Twin Cities, MN

Home | Current Version | Previous Version | Graphics & Text | Print | Product List | Glossary On
Versions: 1 2 3 4 5 6 7 8 9 10 11 12 13 14 15 16 17 18 19
000
FTUS43 KMPX 251100
TAFSTC
TAF
KSTC 251138Z 2512/2612 30005KT P6SM SCT050
     FM251300 28005KT P6SM OVC050
     FM251600 23004KT P6SM BKN035
     FM252300 VRB03KT P6SM BKN025 OVC050
     FM260800 08005KT 6SM -SN BR BKN030 OVC050
     FM261000 06006KT 2SM -SN BR OVC025=

USA.gov is the U.S. government's official web portal to all federal, state and local government web resources and services.